ダブリン の空港の天気 - METARとTAF

ダブリン空港 ( EIDW / DUB ) - アイルランド ダブリン
飛行場実況気象(Metar)
観測時間04/19 12:30 IST (04/19 11:30 UTC)
風向・風速南西 8m/s
視程10km以上
天気現象
少しの雲 雲底高度 90m
全天の8割程度の雲 雲底高度 760m
全天の8割程度の雲 雲底高度 7620m
気温16℃
湿度63%
気圧1022hPa
METAREIDW 191130Z 23015KT 9999 FEW003 BKN025 BKN250 16/09 Q1022 NOSIG
過去の天気等 Google飛行場航空写真 Wunderground天気予報

過去48時間のMETAR

飛行場予報(TAF)
発表時間: 4/19 12:00 IST (4/19 11:00 UTC)
予報対象時間: 19日13時 IST ~ 20日13時 IST
風向・風速南西 7m/s
視程10km以上
少しの雲 雲底高度 300m
全天の8割程度の雲 雲底高度 760m
19日15時 IST ~ 19日19時 IST に 確率 30% で一時的に
風向・風速南南東 4m/s
19日18時 IST ~ 19日21時 IST に徐々に
風向・風速南西 5m/s
20日2時 IST ~ 20日5時 IST に徐々に
風向・風速西 4m/s
20日3時 IST ~ 20日5時 IST に 確率 40% で一時的に
視程3,000m
天気現象もや
全天の4割程度の雲 雲底高度 150m
20日5時 IST ~ 20日8時 IST に一時的に
視程3,000m
天気現象もや
全天の4割程度の雲 雲底高度 150m
20日5時 IST ~ 20日8時 IST に 確率 40% で一時的に
視程300m
天気現象
全天の8割程度の雲 雲底高度 30m
20日11時 IST ~ 20日13時 IST に徐々に
風向・風速南西 3m/s
TAF EIDW 191100Z 1912/2012 23014KT 9999 FEW010 BKN025
PROB30 TEMPO 1914/1918 16008KT
BECMG 1917/1920 23009KT
BECMG 2001/2004 26007KT
PROB40 TEMPO 2002/2004 3000 BR SCT005
TEMPO 2004/2007 3000 BR SCT005
PROB40 TEMPO 2004/2007 0300 FG BKN001
BECMG 2010/2012 23005KT